sensor_id;sensor_type;location;lat;lon;timestamp;pressure;altitude;pressure_sealevel;temperature;humidity
8627;BME280;4351;51.422;6.794;2023-03-20T00:02:01;101898.69;;;9.86;100.00
8627;BME280;4351;51.422;6.794;2023-03-20T00:04:29;101903.13;;;9.87;100.00
8627;BME280;4351;51.422;6.794;2023-03-20T00:06:58;101911.84;;;9.94;100.00
8627;BME280;4351;51.422;6.794;2023-03-20T00:09:26;101913.38;;;9.77;100.00
8627;BME280;4351;51.422;6.794;2023-03-20T00:11:54;101913.38;;;9.77;100.00
8627;BME280;4351;51.422;6.794;2023-03-20T00:14:23;101920.91;;;9.92;100.00
8627;BME280;4351;51.422;6.794;2023-03-20T00:16:52;101917.22;;;9.94;100.00
8627;BME280;4351;51.422;6.794;2023-03-20T00:19:21;101919.41;;;9.84;100.00
8627;BME280;4351;51.422;6.794;2023-03-20T00:21:51;101921.06;;;9.88;100.00
8627;BME280;4351;51.422;6.794;2023-03-20T00:24:19;101914.94;;;9.83;100.00
8627;BME280;4351;51.422;6.794;2023-03-20T00:26:50;101910.97;;;9.70;100.00
8627;BME280;4351;51.422;6.794;2023-03-20T00:29:20;101910.34;;;9.63;100.00
8627;BME280;4351;51.422;6.794;2023-03-20T00:31:51;101915.59;;;9.66;100.00
8627;BME280;4351;51.422;6.794;2023-03-20T00:34:21;101926.16;;;9.72;100.00
8627;BME280;4351;51.422;6.794;2023-03-20T00:36:52;101934.94;;;9.77;100.00
8627;BME280;4351;51.422;6.794;2023-03-20T00:39:20;101933.72;;;9.86;100.00
8627;BME280;4351;51.422;6.794;2023-03-20T00:41:50;101926.16;;;9.72;100.00
8627;BME280;4351;51.422;6.794;2023-03-20T00:44:21;101921.34;;;9.57;100.00
8627;BME280;4351;51.422;6.794;2023-03-20T00:46:53;101926.63;;;9.60;100.00
8627;BME280;4351;51.422;6.794;2023-03-20T00:49:25;101918.72;;;9.55;100.00
8627;BME280;4351;51.422;6.794;2023-03-20T00:51:54;101929.13;;;9.40;100.00
8627;BME280;4351;51.422;6.794;2023-03-20T00:54:23;101924.50;;;9.68;100.00
8627;BME280;4351;51.422;6.794;2023-03-20T00:56:54;101921.56;;;9.50;100.00
8627;BME280;4351;51.422;6.794;2023-03-20T00:59:25;101911.44;;;9.57;100.00
8627;BME280;4351;51.422;6.794;2023-03-20T01:01:56;101901.88;;;9.48;100.00
8627;BME280;4351;51.422;6.794;2023-03-20T01:04:27;101911.50;;;9.56;100.00
8627;BME280;4351;51.422;6.794;2023-03-20T01:06:58;101907.28;;;9.48;100.00
8627;BME280;4351;51.422;6.794;2023-03-20T01:09:26;101910.13;;;9.69;100.00
8627;BME280;4351;51.422;6.794;2023-03-20T01:11:54;101912.84;;;9.43;100.00
8627;BME280;4351;51.422;6.794;2023-03-20T01:14:21;101916.19;;;9.50;100.00
8627;BME280;4351;51.422;6.794;2023-03-20T01:16:50;101915.13;;;9.54;100.00
8627;BME280;4351;51.422;6.794;2023-03-20T01:19:19;101919.28;;;9.39;100.00
8627;BME280;4351;51.422;6.794;2023-03-20T01:21:47;101910.34;;;9.63;100.00
8627;BME280;4351;51.422;6.794;2023-03-20T01:24:15;101896.09;;;9.59;100.00
8627;BME280;4351;51.422;6.794;2023-03-20T01:26:43;101896.16;;;9.34;100.00
8627;BME280;4351;51.422;6.794;2023-03-20T01:29:16;101897.38;;;9.49;100.00
8627;BME280;4351;51.422;6.794;2023-03-20T01:31:45;101901.38;;;9.38;100.00
8627;BME280;4351;51.422;6.794;2023-03-20T01:34:13;101896.88;;;9.39;100.00
8627;BME280;4351;51.422;6.794;2023-03-20T01:36:47;101892.22;;;9.42;100.00
8627;BME280;4351;51.422;6.794;2023-03-20T01:39:16;101892.31;;;9.41;100.00
8627;BME280;4351;51.422;6.794;2023-03-20T01:41:48;101889.63;;;9.41;100.00
8627;BME280;4351;51.422;6.794;2023-03-20T01:44:19;101889.72;;;9.38;100.00
8627;BME280;4351;51.422;6.794;2023-03-20T01:46:52;101880.72;;;9.39;100.00
8627;BME280;4351;51.422;6.794;2023-03-20T01:52:28;101870.09;;;9.34;100.00
8627;BME280;4351;51.422;6.794;2023-03-20T01:54:55;101876.47;;;9.31;100.00
8627;BME280;4351;51.422;6.794;2023-03-20T01:57:24;101894.59;;;9.26;100.00
8627;BME280;4351;51.422;6.794;2023-03-20T01:59:56;101887.84;;;9.40;100.00
8627;BME280;4351;51.422;6.794;2023-03-20T02:02:30;101887.31;;;9.30;100.00
8627;BME280;4351;51.422;6.794;2023-03-20T02:05:01;101900.72;;;9.31;100.00
8627;BME280;4351;51.422;6.794;2023-03-20T02:07:32;101899.72;;;9.34;100.00
8627;BME280;4351;51.422;6.794;2023-03-20T02:10:05;101904.97;;;9.37;100.00
8627;BME280;4351;51.422;6.794;2023-03-20T02:12:42;101913.44;;;9.28;100.00
8627;BME280;4351;51.422;6.794;2023-03-20T02:15:15;101896.06;;;9.37;100.00
8627;BME280;4351;51.422;6.794;2023-03-20T02:17:58;101887.09;;;9.36;100.00
8627;BME280;4351;51.422;6.794;2023-03-20T02:20:35;101886.44;;;9.29;100.00
8627;BME280;4351;51.422;6.794;2023-03-20T02:23:33;101883.91;;;9.25;100.00
8627;BME280;4351;51.422;6.794;2023-03-20T02:26:21;101875.88;;;9.23;100.00
8627;BME280;4351;51.422;6.794;2023-03-20T02:29:10;101881.50;;;9.17;100.00
8627;BME280;4351;51.422;6.794;2023-03-20T02:32:05;101883.91;;;9.25;100.00
8627;BME280;4351;51.422;6.794;2023-03-20T02:34:50;101892.16;;;9.20;100.00
8627;BME280;4351;51.422;6.794;2023-03-20T02:40:35;101895.97;;;9.13;100.00
8627;BME280;4351;51.422;6.794;2023-03-20T02:43:14;101894.34;;;9.08;100.00
8627;BME280;4351;51.422;6.794;2023-03-20T02:45:52;101893.91;;;9.21;100.00
8627;BME280;4351;51.422;6.794;2023-03-20T02:48:30;101890.56;;;9.14;100.00
8627;BME280;4351;51.422;6.794;2023-03-20T02:51:04;101900.06;;;9.25;100.00
8627;BME280;4351;51.422;6.794;2023-03-20T02:53:45;101893.56;;;9.30;100.00
8627;BME280;4351;51.422;6.794;2023-03-20T02:56:21;101887.56;;;9.22;100.00
8627;BME280;4351;51.422;6.794;2023-03-20T02:58:58;101886.75;;;9.20;100.00
8627;BME280;4351;51.422;6.794;2023-03-20T03:01:32;101888.25;;;9.29;100.00
8627;BME280;4351;51.422;6.794;2023-03-20T03:04:05;101880.81;;;9.36;100.00
8627;BME280;4351;51.422;6.794;2023-03-20T03:06:36;101903.28;;;9.35;100.00
8627;BME280;4351;51.422;6.794;2023-03-20T03:09:13;101895.88;;;9.16;100.00
8627;BME280;4351;51.422;6.794;2023-03-20T03:11:47;101884.88;;;9.22;100.00
8627;BME280;4351;51.422;6.794;2023-03-20T03:14:20;101864.94;;;9.28;100.00
8627;BME280;4351;51.422;6.794;2023-03-20T03:16:52;101849.41;;;9.11;100.00
8627;BME280;4351;51.422;6.794;2023-03-20T03:19:23;101853.63;;;9.18;100.00
8627;BME280;4351;51.422;6.794;2023-03-20T03:21:53;101867.41;;;9.08;100.00
8627;BME280;4351;51.422;6.794;2023-03-20T03:24:29;101852.16;;;9.09;100.00
8627;BME280;4351;51.422;6.794;2023-03-20T03:27:12;101841.06;;;9.18;100.00
8627;BME280;4351;51.422;6.794;2023-03-20T03:29:46;101852.16;;;9.09;100.00
8627;BME280;4351;51.422;6.794;2023-03-20T03:32:26;101852.28;;;9.06;100.00
8627;BME280;4351;51.422;6.794;2023-03-20T03:34:55;101865.69;;;9.07;100.00
8627;BME280;4351;51.422;6.794;2023-03-20T03:37:37;101866.16;;;9.19;100.00
8627;BME280;4351;51.422;6.794;2023-03-20T03:40:15;101880.84;;;9.10;100.00
8627;BME280;4351;51.422;6.794;2023-03-20T03:42:52;101884.81;;;9.24;100.00
8627;BME280;4351;51.422;6.794;2023-03-20T03:45:28;101873.19;;;9.23;100.00
8627;BME280;4351;51.422;6.794;2023-03-20T03:48:01;101887.75;;;9.17;100.00
8627;BME280;4351;51.422;6.794;2023-03-20T03:50:35;101896.78;;;9.16;100.00
8627;BME280;4351;51.422;6.794;2023-03-20T03:53:08;101896.94;;;9.12;100.00
8627;BME280;4351;51.422;6.794;2023-03-20T03:55:42;101902.16;;;9.16;100.00
8627;BME280;4351;51.422;6.794;2023-03-20T03:58:16;101902.38;;;9.10;100.00
8627;BME280;4351;51.422;6.794;2023-03-20T04:00:48;101913.84;;;9.15;100.00
8627;BME280;4351;51.422;6.794;2023-03-20T04:03:20;101921.91;;;9.15;100.00
8627;BME280;4351;51.422;6.794;2023-03-20T04:05:51;101915.09;;;9.30;100.00
8627;BME280;4351;51.422;6.794;2023-03-20T04:08:20;101909.19;;;9.20;100.00
8627;BME280;4351;51.422;6.794;2023-03-20T04:10:49;101904.91;;;9.15;100.00
8627;BME280;4351;51.422;6.794;2023-03-20T04:13:17;101896.63;;;9.19;100.00
8627;BME280;4351;51.422;6.794;2023-03-20T04:15:45;101894.16;;;9.15;100.00
8627;BME280;4351;51.422;6.794;2023-03-20T04:18:15;101891.38;;;9.16;100.00
8627;BME280;4351;51.422;6.794;2023-03-20T04:20:45;101888.50;;;8.95;100.00
8627;BME280;4351;51.422;6.794;2023-03-20T04:23:15;101878.19;;;9.08;100.00
8627;BME280;4351;51.422;6.794;2023-03-20T04:25:43;101880.13;;;9.05;100.00
8627;BME280;4351;51.422;6.794;2023-03-20T04:28:12;101880.69;;;9.15;100.00
8627;BME280;4351;51.422;6.794;2023-03-20T04:30:51;101882.47;;;8.89;100.00
8627;BME280;4351;51.422;6.794;2023-03-20T04:33:32;101887.97;;;8.85;100.00
8627;BME280;4351;51.422;6.794;2023-03-20T04:36:23;101890.22;;;8.98;100.00
8627;BME280;4351;51.422;6.794;2023-03-20T04:38:52;101881.22;;;8.99;100.00
8627;BME280;4351;51.422;6.794;2023-03-20T04:41:23;101877.66;;;8.99;100.00
8627;BME280;4351;51.422;6.794;2023-03-20T04:43:56;101872.16;;;8.76;100.00
8627;BME280;4351;51.422;6.794;2023-03-20T04:46:24;101876.78;;;8.98;100.00
8627;BME280;4351;51.422;6.794;2023-03-20T04:48:52;101869.75;;;8.94;100.00
8627;BME280;4351;51.422;6.794;2023-03-20T04:51:20;101877.28;;;8.84;100.00
8627;BME280;4351;51.422;6.794;2023-03-20T04:53:49;101874.69;;;8.81;100.00
8627;BME280;4351;51.422;6.794;2023-03-20T04:56:17;101872.19;;;8.74;100.00
8627;BME280;4351;51.422;6.794;2023-03-20T04:58:47;101866.81;;;9.00;100.00
8627;BME280;4351;51.422;6.794;2023-03-20T05:01:20;101868.41;;;8.80;100.00
8627;BME280;4351;51.422;6.794;2023-03-20T05:03:49;101873.25;;;8.70;100.00
8627;BME280;4351;51.422;6.794;2023-03-20T05:06:17;101866.75;;;8.76;100.00
8627;BME280;4351;51.422;6.794;2023-03-20T05:08:45;101877.84;;;8.67;100.00
8627;BME280;4351;51.422;6.794;2023-03-20T05:11:15;101881.88;;;8.53;100.00
8627;BME280;4351;51.422;6.794;2023-03-20T05:13:58;101883.81;;;8.48;100.00
8627;BME280;4351;51.422;6.794;2023-03-20T05:16:46;101889.13;;;8.51;100.00
8627;BME280;4351;51.422;6.794;2023-03-20T05:19:26;101887.53;;;8.44;100.00
8627;BME280;4351;51.422;6.794;2023-03-20T05:22:06;101891.00;;;8.47;100.00
8627;BME280;4351;51.422;6.794;2023-03-20T05:24:52;101895.69;;;8.42;100.00
8627;BME280;4351;51.422;6.794;2023-03-20T05:27:38;101901.81;;;8.46;100.00
8627;BME280;4351;51.422;6.794;2023-03-20T05:30:25;101901.50;;;8.28;100.00
8627;BME280;4351;51.422;6.794;2023-03-20T05:33:13;101914.16;;;8.53;100.00
8627;BME280;4351;51.422;6.794;2023-03-20T05:35:52;101911.34;;;8.56;100.00
8627;BME280;4351;51.422;6.794;2023-03-20T05:38:36;101903.22;;;8.31;100.00
8627;BME280;4351;51.422;6.794;2023-03-20T05:41:17;101904.09;;;8.31;100.00
8627;BME280;4351;51.422;6.794;2023-03-20T05:44:05;101896.94;;;8.30;100.00
8627;BME280;4351;51.422;6.794;2023-03-20T05:46:52;101896.72;;;8.38;100.00
8627;BME280;4351;51.422;6.794;2023-03-20T05:49:47;101902.03;;;8.39;100.00
8627;BME280;4351;51.422;6.794;2023-03-20T05:52:45;101890.41;;;8.10;100.00
8627;BME280;4351;51.422;6.794;2023-03-20T05:55:23;101888.34;;;8.19;100.00
8627;BME280;4351;51.422;6.794;2023-03-20T05:58:02;101893.72;;;8.19;100.00
8627;BME280;4351;51.422;6.794;2023-03-20T06:00:52;101880.53;;;8.11;100.00
8627;BME280;4351;51.422;6.794;2023-03-20T06:03:40;101881.28;;;8.16;100.00
8627;BME280;4351;51.422;6.794;2023-03-20T06:06:14;101871.22;;;8.21;100.00
8627;BME280;4351;51.422;6.794;2023-03-20T06:08:47;101883.84;;;8.19;100.00
8627;BME280;4351;51.422;6.794;2023-03-20T06:11:16;101889.28;;;8.18;100.00
8627;BME280;4351;51.422;6.794;2023-03-20T06:13:44;101887.06;;;8.31;100.00
8627;BME280;4351;51.422;6.794;2023-03-20T06:16:12;101882.75;;;8.25;100.00
8627;BME280;4351;51.422;6.794;2023-03-20T06:18:40;101889.56;;;8.08;100.00
8627;BME280;4351;51.422;6.794;2023-03-20T06:21:08;101887.66;;;8.12;100.00
8627;BME280;4351;51.422;6.794;2023-03-20T06:23:40;101888.56;;;8.39;100.00
8627;BME280;4351;51.422;6.794;2023-03-20T06:26:08;101886.19;;;8.30;100.00
8627;BME280;4351;51.422;6.794;2023-03-20T06:28:54;101881.91;;;8.24;100.00
8627;BME280;4351;51.422;6.794;2023-03-20T06:31:23;101885.94;;;8.38;100.00
8627;BME280;4351;51.422;6.794;2023-03-20T06:33:50;101885.56;;;8.22;100.00
8627;BME280;4351;51.422;6.794;2023-03-20T06:36:18;101890.00;;;8.23;100.00
8627;BME280;4351;51.422;6.794;2023-03-20T06:38:54;101899.00;;;8.22;100.00
8627;BME280;4351;51.422;6.794;2023-03-20T06:41:23;101906.81;;;8.01;100.00
8627;BME280;4351;51.422;6.794;2023-03-20T06:44:03;101906.66;;;8.34;100.00
8627;BME280;4351;51.422;6.794;2023-03-20T06:46:52;101911.56;;;8.21;100.00
8627;BME280;4351;51.422;6.794;2023-03-20T06:49:20;101915.06;;;8.23;100.00
8627;BME280;4351;51.422;6.794;2023-03-20T06:51:48;101914.25;;;8.21;100.00
8627;BME280;4351;51.422;6.794;2023-03-20T06:54:24;101921.75;;;8.40;100.00
8627;BME280;4351;51.422;6.794;2023-03-20T06:56:53;101924.56;;;8.35;100.00
8627;BME280;4351;51.422;6.794;2023-03-20T06:59:21;101924.44;;;8.40;100.00
8627;BME280;4351;51.422;6.794;2023-03-20T07:01:54;101921.97;;;8.61;100.00
8627;BME280;4351;51.422;6.794;2023-03-20T07:04:22;101926.66;;;8.54;100.00
8627;BME280;4351;51.422;6.794;2023-03-20T07:06:56;101926.31;;;8.65;100.00
8627;BME280;4351;51.422;6.794;2023-03-20T07:09:26;101926.16;;;8.70;100.00
8627;BME280;4351;51.422;6.794;2023-03-20T07:11:54;101911.34;;;8.56;100.00
8627;BME280;4351;51.422;6.794;2023-03-20T07:14:23;101911.84;;;8.40;100.00
8627;BME280;4351;51.422;6.794;2023-03-20T07:16:55;101906.66;;;8.63;100.00
8627;BME280;4351;51.422;6.794;2023-03-20T07:19:23;101903.47;;;8.50;100.00
8627;BME280;4351;51.422;6.794;2023-03-20T07:21:57;101907.63;;;8.60;100.00
8627;BME280;4351;51.422;6.794;2023-03-20T07:24:33;101896.22;;;9.06;100.00
8627;BME280;4351;51.422;6.794;2023-03-20T07:27:01;101896.63;;;8.68;100.00
8627;BME280;4351;51.422;6.794;2023-03-20T07:29:30;101900.88;;;8.47;100.00
8627;BME280;4351;51.422;6.794;2023-03-20T07:31:58;101902.16;;;8.64;100.00
8627;BME280;4351;51.422;6.794;2023-03-20T07:34:32;101902.47;;;8.81;100.00
8627;BME280;4351;51.422;6.794;2023-03-20T07:37:00;101906.59;;;8.65;100.00
8627;BME280;4351;51.422;6.794;2023-03-20T07:39:30;101900.75;;;8.79;100.00
8627;BME280;4351;51.422;6.794;2023-03-20T07:42:27;101902.34;;;8.84;100.00
8627;BME280;4351;51.422;6.794;2023-03-20T07:44:58;101908.25;;;8.69;100.00
8627;BME280;4351;51.422;6.794;2023-03-20T07:47:26;101911.09;;;8.91;100.00
8627;BME280;4351;51.422;6.794;2023-03-20T07:49:53;101905.06;;;9.10;100.00
8627;BME280;4351;51.422;6.794;2023-03-20T07:52:21;101896.94;;;9.12;100.00
8627;BME280;4351;51.422;6.794;2023-03-20T07:54:51;101902.41;;;9.08;100.00
8627;BME280;4351;51.422;6.794;2023-03-20T07:57:19;101898.75;;;9.11;100.00
8627;BME280;4351;51.422;6.794;2023-03-20T07:59:49;101911.13;;;9.17;100.00
8627;BME280;4351;51.422;6.794;2023-03-20T08:02:17;101895.81;;;9.17;100.00
8627;BME280;4351;51.422;6.794;2023-03-20T08:04:45;101908.53;;;9.14;100.00
8627;BME280;4351;51.422;6.794;2023-03-20T08:07:13;101906.75;;;9.13;100.00
8627;BME280;4351;51.422;6.794;2023-03-20T08:09:41;101915.31;;;9.24;100.00
8627;BME280;4351;51.422;6.794;2023-03-20T08:12:09;101907.53;;;9.16;100.00
8627;BME280;4351;51.422;6.794;2023-03-20T08:14:37;101908.66;;;9.35;100.00
8627;BME280;4351;51.422;6.794;2023-03-20T08:17:06;101910.75;;;9.26;100.00
8627;BME280;4351;51.422;6.794;2023-03-20T08:19:42;101908.53;;;9.14;100.00
8627;BME280;4351;51.422;6.794;2023-03-20T08:22:09;101910.78;;;9.50;100.00
8627;BME280;4351;51.422;6.794;2023-03-20T08:24:37;101911.25;;;9.38;100.00
8627;BME280;4351;51.422;6.794;2023-03-20T08:27:05;101900.16;;;9.47;100.00
8627;BME280;4351;51.422;6.794;2023-03-20T08:29:33;101913.91;;;9.63;100.00
8627;BME280;4351;51.422;6.794;2023-03-20T08:32:01;101912.00;;;9.67;100.00
8627;BME280;4351;51.422;6.794;2023-03-20T08:34:31;101908.69;;;9.59;100.00
8627;BME280;4351;51.422;6.794;2023-03-20T08:37:01;101910.88;;;9.73;100.00
8627;BME280;4351;51.422;6.794;2023-03-20T08:39:29;101916.19;;;9.74;100.00
8627;BME280;4351;51.422;6.794;2023-03-20T08:41:58;101908.69;;;9.59;100.00
8627;BME280;4351;51.422;6.794;2023-03-20T08:44:27;101904.34;;;9.54;100.00
8627;BME280;4351;51.422;6.794;2023-03-20T08:46:55;101896.25;;;9.54;100.00
8627;BME280;4351;51.422;6.794;2023-03-20T08:49:22;101899.78;;;9.57;100.00
8627;BME280;4351;51.422;6.794;2023-03-20T08:51:52;101901.78;;;9.75;100.00
8627;BME280;4351;51.422;6.794;2023-03-20T08:54:20;101889.88;;;9.57;100.00
8627;BME280;4351;51.422;6.794;2023-03-20T08:56:48;101893.22;;;9.64;100.00
8627;BME280;4351;51.422;6.794;2023-03-20T08:59:17;101882.38;;;9.65;100.00
8627;BME280;4351;51.422;6.794;2023-03-20T09:01:45;101890.44;;;9.67;100.00
8627;BME280;4351;51.422;6.794;2023-03-20T09:04:15;101889.00;;;9.57;100.00
8627;BME280;4351;51.422;6.794;2023-03-20T09:06:44;101883.59;;;9.58;100.00
8627;BME280;4351;51.422;6.794;2023-03-20T09:09:16;101886.44;;;9.77;100.00
8627;BME280;4351;51.422;6.794;2023-03-20T09:11:45;101881.78;;;9.81;100.00
8627;BME280;4351;51.422;6.794;2023-03-20T09:14:13;101880.97;;;9.79;100.00
8627;BME280;4351;51.422;6.794;2023-03-20T09:16:41;101879.41;;;9.73;100.00
8627;BME280;4351;51.422;6.794;2023-03-20T09:19:10;101882.22;;;9.70;100.00
8627;BME280;4351;51.422;6.794;2023-03-20T09:21:38;101887.81;;;9.88;100.00
8627;BME280;4351;51.422;6.794;2023-03-20T09:24:06;101881.88;;;9.56;100.00
8627;BME280;4351;51.422;6.794;2023-03-20T09:26:35;101880.16;;;9.77;100.00
8627;BME280;4351;51.422;6.794;2023-03-20T09:29:04;101886.28;;;9.81;100.00
8627;BME280;4351;51.422;6.794;2023-03-20T09:31:32;101883.00;;;9.74;100.00
8627;BME280;4351;51.422;6.794;2023-03-20T09:34:00;101876.53;;;9.78;100.00
8627;BME280;4351;51.422;6.794;2023-03-20T09:36:28;101876.50;;;9.56;100.00
8627;BME280;4351;51.422;6.794;2023-03-20T09:38:56;101878.41;;;9.76;100.00
8627;BME280;4351;51.422;6.794;2023-03-20T09:41:25;101888.41;;;9.72;100.00
8627;BME280;4351;51.422;6.794;2023-03-20T09:44:06;101880.91;;;9.57;100.00
8627;BME280;4351;51.422;6.794;2023-03-20T09:46:50;101878.53;;;9.73;100.00
8627;BME280;4351;51.422;6.794;2023-03-20T09:49:42;101884.31;;;9.86;100.00
8627;BME280;4351;51.422;6.794;2023-03-20T09:52:19;101886.53;;;9.74;100.00
8627;BME280;4351;51.422;6.794;2023-03-20T09:54:49;101883.03;;;9.72;100.00
8627;BME280;4351;51.422;6.794;2023-03-20T09:57:23;101894.38;;;9.81;100.00
8627;BME280;4351;51.422;6.794;2023-03-20T09:59:55;101879.09;;;9.81;100.00
8627;BME280;4351;51.422;6.794;2023-03-20T10:02:33;101879.69;;;9.65;100.00
8627;BME280;4351;51.422;6.794;2023-03-20T10:05:12;101884.03;;;9.70;100.00
8627;BME280;4351;51.422;6.794;2023-03-20T10:07:44;101886.19;;;9.84;100.00
8627;BME280;4351;51.422;6.794;2023-03-20T10:10:12;101888.34;;;9.98;100.00
8627;BME280;4351;51.422;6.794;2023-03-20T10:12:48;101888.63;;;9.90;100.00
8627;BME280;4351;51.422;6.794;2023-03-20T10:15:23;101879.13;;;10.04;100.00
8627;BME280;4351;51.422;6.794;2023-03-20T10:18:01;101874.41;;;9.86;100.00
8627;BME280;4351;51.422;6.794;2023-03-20T10:20:35;101877.72;;;9.71;100.00
8627;BME280;4351;51.422;6.794;2023-03-20T10:23:12;101893.78;;;9.74;100.00
8627;BME280;4351;51.422;6.794;2023-03-20T10:25:47;101884.66;;;9.76;100.00
8627;BME280;4351;51.422;6.794;2023-03-20T10:28:19;101885.66;;;9.98;100.00
8627;BME280;4351;51.422;6.794;2023-03-20T10:30:59;101873.19;;;9.95;100.00
8627;BME280;4351;51.422;6.794;2023-03-20T10:33:42;101883.59;;;9.81;100.00
8627;BME280;4351;51.422;6.794;2023-03-20T10:36:26;101864.81;;;9.79;100.00
8627;BME280;4351;51.422;6.794;2023-03-20T10:39:05;101879.13;;;10.04;100.00
8627;BME280;4351;51.422;6.794;2023-03-20T10:41:37;101881.03;;;9.77;100.00
8627;BME280;4351;51.422;6.794;2023-03-20T10:44:09;101871.28;;;9.97;100.00
8627;BME280;4351;51.422;6.794;2023-03-20T10:46:47;101865.75;;;10.00;100.00
8627;BME280;4351;51.422;6.794;2023-03-20T10:49:22;101865.16;;;9.94;100.00
8627;BME280;4351;51.422;6.794;2023-03-20T10:51:57;101869.16;;;10.06;100.00
8627;BME280;4351;51.422;6.794;2023-03-20T10:54:29;101856.00;;;9.98;100.00
8627;BME280;4351;51.422;6.794;2023-03-20T10:57:05;101859.00;;;9.90;100.00
8627;BME280;4351;51.422;6.794;2023-03-20T10:59:39;101854.59;;;10.10;100.00
8627;BME280;4351;51.422;6.794;2023-03-20T11:02:10;101861.56;;;9.93;100.00
8627;BME280;4351;51.422;6.794;2023-03-20T11:04:39;101865.78;;;10.23;100.00
8627;BME280;4351;51.422;6.794;2023-03-20T11:07:15;101860.88;;;9.88;100.00
8627;BME280;4351;51.422;6.794;2023-03-20T11:10:06;101854.97;;;10.00;100.00
8627;BME280;4351;51.422;6.794;2023-03-20T11:12:36;101853.69;;;10.11;100.00
8627;BME280;4351;51.422;6.794;2023-03-20T11:15:15;101855.59;;;10.30;100.00
8627;BME280;4351;51.422;6.794;2023-03-20T11:17:52;101858.31;;;10.30;100.00
8627;BME280;4351;51.422;6.794;2023-03-20T11:20:21;101865.53;;;10.07;100.00
8627;BME280;4351;51.422;6.794;2023-03-20T11:22:50;101847.03;;;9.97;100.00
8627;BME280;4351;51.422;6.794;2023-03-20T11:25:29;101852.50;;;9.96;100.00
8627;BME280;4351;51.422;6.794;2023-03-20T11:28:18;101845.78;;;10.29;100.00
8627;BME280;4351;51.422;6.794;2023-03-20T11:30:46;101854.78;;;10.28;100.00
8627;BME280;4351;51.422;6.794;2023-03-20T11:33:32;101849.31;;;10.29;100.00
8627;BME280;4351;51.422;6.794;2023-03-20T11:36:10;101848.16;;;10.14;100.00
8627;BME280;4351;51.422;6.794;2023-03-20T11:38:42;101839.19;;;9.91;100.00
8627;BME280;4351;51.422;6.794;2023-03-20T11:41:16;101850.59;;;9.75;100.00
8627;BME280;4351;51.422;6.794;2023-03-20T11:43:44;101847.03;;;9.97;100.00
8627;BME280;4351;51.422;6.794;2023-03-20T11:46:12;101844.19;;;10.00;100.00
8627;BME280;4351;51.422;6.794;2023-03-20T11:48:43;101845.25;;;9.96;100.00
8627;BME280;4351;51.422;6.794;2023-03-20T11:51:14;101850.28;;;10.06;100.00
8627;BME280;4351;51.422;6.794;2023-03-20T11:53:57;101848.47;;;9.84;100.00
8627;BME280;4351;51.422;6.794;2023-03-20T11:56:28;101858.84;;;9.71;100.00
8627;BME280;4351;51.422;6.794;2023-03-20T11:59:01;101854.88;;;9.57;100.00
8627;BME280;4351;51.422;6.794;2023-03-20T12:01:37;101846.94;;;9.76;100.00
8627;BME280;4351;51.422;6.794;2023-03-20T12:04:12;101855.34;;;9.69;100.00
8627;BME280;4351;51.422;6.794;2023-03-20T12:06:45;101849.53;;;9.56;100.00
8627;BME280;4351;51.422;6.794;2023-03-20T12:09:37;101860.97;;;9.62;100.00
8627;BME280;4351;51.422;6.794;2023-03-20T12:12:15;101858.22;;;9.40;100.00
8627;BME280;4351;51.422;6.794;2023-03-20T12:14:53;101856.50;;;9.37;100.00
8627;BME280;4351;51.422;6.794;2023-03-20T12:17:35;101858.69;;;9.51;100.00
8627;BME280;4351;51.422;6.794;2023-03-20T12:20:16;101853.41;;;9.48;100.00
8627;BME280;4351;51.422;6.794;2023-03-20T12:22:53;101849.31;;;9.62;100.00
8627;BME280;4351;51.422;6.794;2023-03-20T12:25:24;101851.34;;;9.31;100.00
8627;BME280;4351;51.422;6.794;2023-03-20T12:28:01;101859.44;;;9.55;100.00
8627;BME280;4351;51.422;6.794;2023-03-20T12:30:38;101845.13;;;9.77;100.00
8627;BME280;4351;51.422;6.794;2023-03-20T12:33:16;101846.19;;;9.73;100.00
8627;BME280;4351;51.422;6.794;2023-03-20T12:35:48;101849.13;;;9.66;100.00
8627;BME280;4351;51.422;6.794;2023-03-20T12:38:23;101840.81;;;9.95;100.00
8627;BME280;4351;51.422;6.794;2023-03-20T12:40:54;101840.38;;;10.06;100.00
8627;BME280;4351;51.422;6.794;2023-03-20T12:43:26;101841.94;;;9.89;100.00
8627;BME280;4351;51.422;6.794;2023-03-20T12:46:01;101841.84;;;10.15;100.00
8627;BME280;4351;51.422;6.794;2023-03-20T12:48:51;101835.06;;;9.82;100.00
8627;BME280;4351;51.422;6.794;2023-03-20T12:51:40;101825.38;;;9.76;100.00
8627;BME280;4351;51.422;6.794;2023-03-20T12:54:26;101824.69;;;9.71;100.00
8627;BME280;4351;51.422;6.794;2023-03-20T12:57:09;101825.38;;;9.54;100.00
8627;BME280;4351;51.422;6.794;2023-03-20T12:59:47;101823.59;;;9.53;100.00
8627;BME280;4351;51.422;6.794;2023-03-20T13:02:30;101813.72;;;9.53;100.00
8627;BME280;4351;51.422;6.794;2023-03-20T13:05:07;101812.47;;;9.62;100.00
8627;BME280;4351;51.422;6.794;2023-03-20T13:07:53;101805.34;;;9.84;100.00
8627;BME280;4351;51.422;6.794;2023-03-20T13:10:29;101805.94;;;9.68;100.00
8627;BME280;4351;51.422;6.794;2023-03-20T13:13:08;101809.94;;;9.58;100.00
8627;BME280;4351;51.422;6.794;2023-03-20T13:15:51;101796.78;;;9.50;100.00
8627;BME280;4351;51.422;6.794;2023-03-20T13:18:33;101799.19;;;9.58;100.00
8627;BME280;4351;51.422;6.794;2023-03-20T13:21:07;101794.97;;;9.50;100.00
8627;BME280;4351;51.422;6.794;2023-03-20T13:23:43;101789.28;;;9.58;100.00
8627;BME280;4351;51.422;6.794;2023-03-20T13:26:23;101796.06;;;9.69;100.00
8627;BME280;4351;51.422;6.794;2023-03-20T13:28:57;101785.16;;;9.72;100.00
8627;BME280;4351;51.422;6.794;2023-03-20T13:31:43;101787.44;;;9.83;100.00
8627;BME280;4351;51.422;6.794;2023-03-20T13:34:22;101795.06;;;9.94;100.00
8627;BME280;4351;51.422;6.794;2023-03-20T13:37:04;101788.53;;;9.99;100.00
8627;BME280;4351;51.422;6.794;2023-03-20T13:39:58;101785.25;;;10.14;100.00
8627;BME280;4351;51.422;6.794;2023-03-20T13:42:31;101788.09;;;10.75;100.00
8627;BME280;4351;51.422;6.794;2023-03-20T13:45:04;101781.63;;;10.15;100.00
8627;BME280;4351;51.422;6.794;2023-03-20T13:47:34;101782.19;;;10.00;100.00
8627;BME280;4351;51.422;6.794;2023-03-20T13:50:26;101778.38;;;10.06;100.00
8627;BME280;4351;51.422;6.794;2023-03-20T13:53:01;101784.66;;;10.07;100.00